Rexford, Kansas
Current Conditions -  °F | °C
As of 7:15 PM on Saturday 25 Oct 2014 (Local Time) from KCBK Reporting Station
Clear Clear  
Wind Chill: 70°   Ceiling: Unl
Heat Index: 70°   Visibility: 10mi
Dew Point: 45°   Wind: 5mph
Humidity: 40%   Direction: 130°SE
Pressure: 29.97"   Gusts: NA
Location:  39.47°N, 100.74°W
Report Text: KCBK 260015Z AUTO 13004KT 10SM CLR 21/07 A2997 RMK AO2
Loading
Personal Weather Stations






























Interactive Weather Map
Tropical Storm Tracking
New forecast layout! Learn more

10-Day Weather Forecast

Advertisements
Track Severe Weather on mobile